CDC3694 ZGSZ-ZSPD
Flight info
| Callsign | CDC3694 |
|---|---|
| Flight time | N/A |
| Altitude | 33100 |
| Route | IDUMA1 IDUMA W22 SHL G471 EGEDA/K0854S1040 G471 PLT/K0830S1010 A599 ELNEX G204 SHZ W58 XSY |
| Aircraft | A320/M-SDE3FGHIRWY/LB1 |
Departure
| Time | 2026-04-22 11:39 |
|---|---|
| Airport | Shenzhen Bao'an International Airport (ZGSZ) |
Arrival
| Time | N/A |
|---|---|
| Airport | Shanghai Pudong International Airport (ZSPD) |
| Time | Latitude | Longitude | Altitude | Speed | Heading |
|---|---|---|---|---|---|
| 2026-04-22 11:07 | 22.63459 | 113.80700 | 16 ft | 0 kts | 153° |
| 2026-04-22 11:16 | 22.63460 | 113.80700 | 15 ft | 0 kts | 153° |
| 2026-04-22 11:28 | 22.63473 | 113.80693 | 17 ft | 4 kts | 153° |
| 2026-04-22 11:28 | 22.63497 | 113.80680 | 17 ft | 4 kts | 153° |
| 2026-04-22 11:29 | 22.63516 | 113.80667 | 18 ft | 4 kts | 105° |
| 2026-04-22 11:29 | 22.63514 | 113.80646 | 17 ft | 1 kts | 63° |
| 2026-04-22 11:29 | 22.63505 | 113.80626 | 18 ft | 1 kts | 63° |
| 2026-04-22 11:32 | 22.63508 | 113.80633 | 16 ft | 3 kts | 63° |
| 2026-04-22 11:32 | 22.63526 | 113.80673 | 16 ft | 10 kts | 63° |
| 2026-04-22 11:32 | 22.63570 | 113.80765 | 15 ft | 14 kts | 63° |
| 2026-04-22 11:33 | 22.63611 | 113.80853 | 15 ft | 12 kts | 63° |
| 2026-04-22 11:33 | 22.63641 | 113.80928 | 15 ft | 10 kts | 68° |
| 2026-04-22 11:33 | 22.63684 | 113.80973 | 15 ft | 8 kts | 6° |
| 2026-04-22 11:33 | 22.63740 | 113.80948 | 15 ft | 11 kts | 332° |
| 2026-04-22 11:34 | 22.63825 | 113.80901 | 15 ft | 16 kts | 333° |
| 2026-04-22 11:34 | 22.63930 | 113.80844 | 15 ft | 20 kts | 333° |
| 2026-04-22 11:34 | 22.64052 | 113.80777 | 15 ft | 19 kts | 333° |
| 2026-04-22 11:34 | 22.64160 | 113.80716 | 15 ft | 17 kts | 333° |
| 2026-04-22 11:35 | 22.64258 | 113.80663 | 15 ft | 16 kts | 333° |
| 2026-04-22 11:35 | 22.64367 | 113.80603 | 15 ft | 19 kts | 332° |
| 2026-04-22 11:35 | 22.64490 | 113.80535 | 15 ft | 20 kts | 333° |
| 2026-04-22 11:35 | 22.64605 | 113.80472 | 15 ft | 17 kts | 333° |
| 2026-04-22 11:36 | 22.64707 | 113.80416 | 15 ft | 15 kts | 333° |
| 2026-04-22 11:36 | 22.64798 | 113.80366 | 15 ft | 15 kts | 333° |
| 2026-04-22 11:36 | 22.64890 | 113.80316 | 15 ft | 16 kts | 333° |
| 2026-04-22 11:36 | 22.64992 | 113.80260 | 15 ft | 17 kts | 333° |
| 2026-04-22 11:37 | 22.65081 | 113.80212 | 15 ft | 10 kts | 339° |
| 2026-04-22 11:37 | 22.65123 | 113.80246 | 17 ft | 7 kts | 56° |
| 2026-04-22 11:37 | 22.65146 | 113.80288 | 15 ft | 6 kts | 63° |
| 2026-04-22 11:37 | 22.65164 | 113.80328 | 15 ft | 9 kts | 63° |
| 2026-04-22 11:38 | 22.65160 | 113.80384 | 17 ft | 7 kts | 145° |
| 2026-04-22 11:38 | 22.65152 | 113.80389 | 17 ft | 1 kts | 152° |
| 2026-04-22 11:38 | 22.64537 | 113.80724 | 15 ft | 110 kts | 153° |
| 2026-04-22 11:39 | 22.63705 | 113.81182 | 15 ft | 157 kts | 153° |
| 2026-04-22 11:39 | 22.62643 | 113.81777 | 262 ft | 178 kts | 154° |
| 2026-04-22 11:39 | 22.61522 | 113.82387 | 894 ft | 180 kts | 156° |
| 2026-04-22 11:39 | 22.60424 | 113.82985 | 1628 ft | 177 kts | 158° |
| 2026-04-22 11:40 | 22.59284 | 113.83604 | 2060 ft | 190 kts | 159° |
| 2026-04-22 11:40 | 22.58049 | 113.84267 | 2269 ft | 213 kts | 159° |
| 2026-04-22 11:40 | 22.56652 | 113.85019 | 2630 ft | 233 kts | 158° |